sensor_id;sensor_type;location;lat;lon;timestamp;pressure;altitude;pressure_sealevel;temperature;humidity
19674;BME280;9986;50.610;7.230;2023-11-19T00:06:16;-22869.93;;;10.24;100.00
19674;BME280;9986;50.610;7.230;2023-11-19T00:14:05;-23845.96;;;10.29;100.00
19674;BME280;9986;50.610;7.230;2023-11-19T00:24:48;-21420.43;;;10.72;100.00
19674;BME280;9986;50.610;7.230;2023-11-19T00:38:20;-23536.00;;;10.78;100.00
19674;BME280;9986;50.610;7.230;2023-11-19T00:56:57;-22881.94;;;10.65;100.00
19674;BME280;9986;50.610;7.230;2023-11-19T01:18:16;-25156.31;;;10.64;100.00
19674;BME280;9986;50.610;7.230;2023-11-19T01:23:32;-25160.39;;;10.73;100.00
19674;BME280;9986;50.610;7.230;2023-11-19T01:28:49;-24994.69;;;10.66;100.00
19674;BME280;9986;50.610;7.230;2023-11-19T01:56:13;-25163.69;;;10.83;100.00
19674;BME280;9986;50.610;7.230;2023-11-19T02:01:23;-25165.50;;;10.89;100.00
19674;BME280;9986;50.610;7.230;2023-11-19T02:20:14;-25182.80;;;11.41;100.00
19674;BME280;9986;50.610;7.230;2023-11-19T02:44:45;-22262.98;;;11.76;100.00
19674;BME280;9986;50.610;7.230;2023-11-19T02:52:46;-19658.59;;;11.87;100.00
19674;BME280;9986;50.610;7.230;2023-11-19T03:00:39;-18676.10;;;11.68;100.00
19674;BME280;9986;50.610;7.230;2023-11-19T03:19:37;-20300.27;;;11.45;100.00
19674;BME280;9986;50.610;7.230;2023-11-19T03:32:55;-19319.26;;;11.30;100.00
19674;BME280;9986;50.610;7.230;2023-11-19T03:38:07;-19482.04;;;11.30;100.00
19674;BME280;9986;50.610;7.230;2023-11-19T03:43:17;-19977.54;;;11.58;100.00
19674;BME280;9986;50.610;7.230;2023-11-19T04:02:05;-16389.45;;;11.50;100.00
19674;BME280;9986;50.610;7.230;2023-11-19T04:07:15;-14751.87;;;11.12;100.00
19674;BME280;9986;50.610;7.230;2023-11-19T04:17:52;-18831.20;;;11.33;100.00
19674;BME280;9986;50.610;7.230;2023-11-19T04:25:42;-18339.64;;;11.21;100.00
19674;BME280;9986;50.610;7.230;2023-11-19T04:30:52;-15401.82;;;10.99;100.00
19674;BME280;9986;50.610;7.230;2023-11-19T04:38:49;-17363.66;;;11.29;100.00
19674;BME280;9986;50.610;7.230;2023-11-19T04:44:04;-11988.28;;;11.99;100.00
19674;BME280;9986;50.610;7.230;2023-11-19T04:49:14;4234.45;;;12.04;100.00
19674;BME280;9986;50.610;7.230;2023-11-19T04:57:12;26166.78;;;12.24;100.00
19674;BME280;9986;50.610;7.230;2023-11-19T05:05:07;39424.68;;;12.21;100.00
19674;BME280;9986;50.610;7.230;2023-11-19T05:21:16;90841.63;;;12.49;100.00
19674;BME280;9986;50.610;7.230;2023-11-19T05:26:27;127276.30;;;12.40;100.00
19674;BME280;9986;50.610;7.230;2023-11-19T05:31:43;90992.82;;;12.38;100.00
19674;BME280;9986;50.610;7.230;2023-11-19T06:01:06;145968.55;;;12.67;100.00
19674;BME280;9986;50.610;7.230;2023-11-19T06:22:29;145865.30;;;12.26;100.00
19674;BME280;9986;50.610;7.230;2023-11-19T06:30:20;145862.77;;;12.25;100.00
19674;BME280;9986;50.610;7.230;2023-11-19T06:35:29;145823.69;;;12.10;100.00
19674;BME280;9986;50.610;7.230;2023-11-19T06:43:20;145764.56;;;11.87;100.00
19674;BME280;9986;50.610;7.230;2023-11-19T06:48:30;145782.16;;;11.94;100.00
19674;BME280;9986;50.610;7.230;2023-11-19T06:53:42;145812.38;;;12.06;100.00
19674;BME280;9986;50.610;7.230;2023-11-19T06:59:04;145858.97;;;12.24;100.00
19674;BME280;9986;50.610;7.230;2023-11-19T07:04:14;145867.81;;;12.27;100.00
19674;BME280;9986;50.610;7.230;2023-11-19T07:09:24;145987.44;;;12.75;100.00
19674;BME280;9986;50.610;7.230;2023-11-19T07:14:33;145945.87;;;12.58;100.00
19674;BME280;9986;50.610;7.230;2023-11-19T07:22:28;145943.36;;;12.57;100.00
19674;BME280;9986;50.610;7.230;2023-11-19T07:27:37;145929.50;;;12.52;100.00
19674;BME280;9986;50.610;7.230;2023-11-19T07:35:26;145963.55;;;12.65;100.00
19674;BME280;9986;50.610;7.230;2023-11-19T07:43:18;145904.33;;;12.42;100.00
19674;BME280;9986;50.610;7.230;2023-11-19T07:48:27;145933.31;;;12.53;100.00
19674;BME280;9986;50.610;7.230;2023-11-19T07:53:37;145893.00;;;12.37;100.00
19674;BME280;9986;50.610;7.230;2023-11-19T07:58:52;145971.06;;;12.68;100.00
19674;BME280;9986;50.610;7.230;2023-11-19T08:09:23;145971.06;;;12.68;100.00
19674;BME280;9986;50.610;7.230;2023-11-19T08:14:33;145972.36;;;12.69;100.00
19674;BME280;9986;50.610;7.230;2023-11-19T08:22:28;145954.69;;;12.62;100.00
19674;BME280;9986;50.610;7.230;2023-11-19T08:33:08;145923.22;;;12.49;100.00
19674;BME280;9986;50.610;7.230;2023-11-19T08:41:05;145908.09;;;12.43;100.00
19674;BME280;9986;50.610;7.230;2023-11-19T08:51:43;145998.83;;;12.79;100.00
19674;BME280;9986;50.610;7.230;2023-11-19T08:56:54;145996.31;;;12.78;100.00
19674;BME280;9986;50.610;7.230;2023-11-19T09:02:02;146034.13;;;12.93;100.00
19674;BME280;9986;50.610;7.230;2023-11-19T09:15:22;146095.89;;;13.17;100.00
19674;BME280;9986;50.610;7.230;2023-11-19T09:31:17;146102.19;;;13.20;100.00
19674;BME280;9986;50.610;7.230;2023-11-19T09:39:06;146099.66;;;13.19;100.00
19674;BME280;9986;50.610;7.230;2023-11-19T09:46:59;146058.08;;;13.03;100.00
19674;BME280;9986;50.610;7.230;2023-11-19T09:54:57;146085.80;;;13.13;100.00
19674;BME280;9986;50.610;7.230;2023-11-19T10:00:08;146151.34;;;13.39;100.00
19674;BME280;9986;50.610;7.230;2023-11-19T10:10:48;146129.95;;;13.31;100.00
19674;BME280;9986;50.610;7.230;2023-11-19T10:24:32;146225.78;;;13.69;100.00
19674;BME280;9986;50.610;7.230;2023-11-19T10:29:51;146296.41;;;13.97;100.00
19674;BME280;9986;50.610;7.230;2023-11-19T10:40:41;146305.23;;;14.00;100.00
19674;BME280;9986;50.610;7.230;2023-11-19T10:54:06;146339.33;;;14.13;100.00
19674;BME280;9986;50.610;7.230;2023-11-19T11:15:37;146340.61;;;14.14;100.00
19674;BME280;9986;50.610;7.230;2023-11-19T11:41:16;146412.52;;;14.42;100.00
19674;BME280;9986;50.610;7.230;2023-11-19T11:52:25;146368.36;;;14.25;100.00
19674;BME280;9986;50.610;7.230;2023-11-19T12:11:25;146381.00;;;14.30;100.00
19674;BME280;9986;50.610;7.230;2023-11-19T12:22:12;146422.62;;;14.46;100.00
19674;BME280;9986;50.610;7.230;2023-11-19T12:38:22;146481.91;;;14.70;100.00
19674;BME280;9986;50.610;7.230;2023-11-19T12:43:49;146465.50;;;14.63;100.00
19674;BME280;9986;50.610;7.230;2023-11-19T12:48:59;146431.44;;;14.50;100.00
19674;BME280;9986;50.610;7.230;2023-11-19T12:56:54;146412.52;;;14.42;100.00
19674;BME280;9986;50.610;7.230;2023-11-19T13:10:10;146145.06;;;13.37;100.00
19674;BME280;9986;50.610;7.230;2023-11-19T13:15:26;146182.89;;;13.52;100.00
19674;BME280;9986;50.610;7.230;2023-11-19T13:25:56;146021.50;;;12.88;100.00
19674;BME280;9986;50.610;7.230;2023-11-19T13:36:26;145940.84;;;12.56;100.00
19674;BME280;9986;50.610;7.230;2023-11-19T13:41:36;145948.41;;;12.59;100.00
19674;BME280;9986;50.610;7.230;2023-11-19T13:49:32;70498.10;;;12.54;100.00
19674;BME280;9986;50.610;7.230;2023-11-19T14:02:50;60317.87;;;12.86;100.00
19674;BME280;9986;50.610;7.230;2023-11-19T14:10:46;146198.03;;;13.58;100.00
19674;BME280;9986;50.610;7.230;2023-11-19T14:15:56;146200.52;;;13.59;100.00
19674;BME280;9986;50.610;7.230;2023-11-19T14:29:23;146180.36;;;13.51;100.00
19674;BME280;9986;50.610;7.230;2023-11-19T14:40:00;146185.41;;;13.53;100.00
19674;BME280;9986;50.610;7.230;2023-11-19T14:45:11;146083.27;;;13.12;100.00
19674;BME280;9986;50.610;7.230;2023-11-19T15:06:37;146128.67;;;13.30;100.00
19674;BME280;9986;50.610;7.230;2023-11-19T15:14:38;146094.66;;;13.17;100.00
19674;BME280;9986;50.610;7.230;2023-11-19T15:19:54;146132.47;;;13.32;100.00
19674;BME280;9986;50.610;7.230;2023-11-19T15:25:04;146118.56;;;13.26;100.00
19674;BME280;9986;50.610;7.230;2023-11-19T15:30:16;146044.22;;;12.97;100.00
19674;BME280;9986;50.610;7.230;2023-11-19T15:51:31;146079.50;;;13.11;100.00
19674;BME280;9986;50.610;7.230;2023-11-19T15:59:27;146080.80;;;13.11;100.00
19674;BME280;9986;50.610;7.230;2023-11-19T16:10:04;146020.20;;;12.88;100.00
19674;BME280;9986;50.610;7.230;2023-11-19T16:15:13;146090.84;;;13.15;100.00
19674;BME280;9986;50.610;7.230;2023-11-19T16:23:13;146005.11;;;12.82;100.00
19674;BME280;9986;50.610;7.230;2023-11-19T16:28:24;146021.50;;;12.88;100.00
19674;BME280;9986;50.610;7.230;2023-11-19T16:39:03;145958.50;;;12.63;100.00
19674;BME280;9986;50.610;7.230;2023-11-19T16:46:52;145947.17;;;12.59;100.00
19674;BME280;9986;50.610;7.230;2023-11-19T17:02:50;145963.55;;;12.65;100.00
19674;BME280;9986;50.610;7.230;2023-11-19T17:07:59;145988.73;;;12.75;100.00
19674;BME280;9986;50.610;7.230;2023-11-19T17:13:07;146011.39;;;12.84;100.00
19674;BME280;9986;50.610;7.230;2023-11-19T17:26:30;145904.33;;;12.42;100.00
19674;BME280;9986;50.610;7.230;2023-11-19T17:50:36;145916.94;;;12.47;100.00
19674;BME280;9986;50.610;7.230;2023-11-19T18:06:28;145910.61;;;12.44;100.00
19674;BME280;9986;50.610;7.230;2023-11-19T18:14:18;145947.17;;;12.59;100.00
19674;BME280;9986;50.610;7.230;2023-11-19T18:22:07;145977.41;;;12.71;100.00
19674;BME280;9986;50.610;7.230;2023-11-19T18:30:06;146018.97;;;12.87;100.00
19674;BME280;9986;50.610;7.230;2023-11-19T18:35:27;146001.30;;;12.80;100.00
19674;BME280;9986;50.610;7.230;2023-11-19T18:52:12;145996.31;;;12.78;100.00
19674;BME280;9986;50.610;7.230;2023-11-19T19:05:27;145981.16;;;12.72;100.00
19674;BME280;9986;50.610;7.230;2023-11-19T19:10:43;145961.03;;;12.64;100.00
19674;BME280;9986;50.610;7.230;2023-11-19T19:15:54;145958.50;;;12.63;100.00
19674;BME280;9986;50.610;7.230;2023-11-19T19:21:06;145961.03;;;12.64;100.00
19674;BME280;9986;50.610;7.230;2023-11-19T19:29:03;145930.80;;;12.52;100.00
19674;BME280;9986;50.610;7.230;2023-11-19T19:34:12;145935.78;;;12.54;100.00
19674;BME280;9986;50.610;7.230;2023-11-19T19:52:54;145966.06;;;12.66;100.00
19674;BME280;9986;50.610;7.230;2023-11-19T19:58:03;145945.87;;;12.58;100.00
19674;BME280;9986;50.610;7.230;2023-11-19T20:08:43;145952.17;;;12.61;100.00
19674;BME280;9986;50.610;7.230;2023-11-19T20:19:13;145983.69;;;12.73;100.00
19674;BME280;9986;50.610;7.230;2023-11-19T20:24:31;146005.11;;;12.82;100.00
19674;BME280;9986;50.610;7.230;2023-11-19T20:45:59;146000.06;;;12.80;100.00
19674;BME280;9986;50.610;7.230;2023-11-19T20:51:12;146003.83;;;12.81;100.00
19674;BME280;9986;50.610;7.230;2023-11-19T20:56:21;145991.25;;;12.76;100.00
19674;BME280;9986;50.610;7.230;2023-11-19T21:36:24;145973.59;;;12.69;100.00
19674;BME280;9986;50.610;7.230;2023-11-19T21:41:39;145950.94;;;12.60;100.00
19674;BME280;9986;50.610;7.230;2023-11-19T22:00:19;145923.22;;;12.49;100.00
19674;BME280;9986;50.610;7.230;2023-11-19T22:10:54;145930.80;;;12.52;100.00
19674;BME280;9986;50.610;7.230;2023-11-19T22:21:38;145915.66;;;12.46;100.00
19674;BME280;9986;50.610;7.230;2023-11-19T22:26:53;145891.70;;;12.37;100.00
19674;BME280;9986;50.610;7.230;2023-11-19T22:32:03;145915.66;;;12.46;100.00
19674;BME280;9986;50.610;7.230;2023-11-19T22:39:59;145909.37;;;12.44;100.00
19674;BME280;9986;50.610;7.230;2023-11-19T22:53:17;145924.45;;;12.50;100.00
19674;BME280;9986;50.610;7.230;2023-11-19T23:03:54;145934.55;;;12.54;100.00
19674;BME280;9986;50.610;7.230;2023-11-19T23:17:05;145903.03;;;12.41;100.00
19674;BME280;9986;50.610;7.230;2023-11-19T23:25:01;145894.23;;;12.38;100.00
19674;BME280;9986;50.610;7.230;2023-11-19T23:35:31;145882.91;;;12.33;100.00
19674;BME280;9986;50.610;7.230;2023-11-19T23:43:23;145885.42;;;12.34;100.00
19674;BME280;9986;50.610;7.230;2023-11-19T23:56:34;145879.14;;;12.32;100.00
